Time;durP1;ratioP1;P1;durP2;ratioP2;P2;SDS_P1;SDS_P2;PMS_P1;PMS_P2;Temp;Humidity;BMP_temperature;BMP_pressure;BME280_temperature;BME280_humidity;BME280_pressure;Samples;Min_cycle;Max_cycle;Signal;HPM_P1;HPM_P2
2021/08/12 00:01:11;;;;;;;16.23;10.52;;;15.00;88.40;;;;;;5056759;28;20236;-88
2021/08/12 00:03:37;;;;;;;13.65;10.88;;;15.00;88.50;;;;;;5056379;28;20403;-88
2021/08/12 00:06:02;;;;;;;16.48;10.35;;;15.00;88.50;;;;;;5074361;28;20175;-88
2021/08/12 00:08:28;;;;;;;11.88;9.27;;;15.00;88.30;;;;;;5074173;28;20534;-88
2021/08/12 00:10:54;;;;;;;13.43;10.10;;;14.80;88.10;;;;;;5056401;28;20176;-88
2021/08/12 00:13:20;;;;;;;17.45;10.48;;;14.80;88.40;;;;;;5056263;28;20253;-88
2021/08/12 00:15:47;;;;;;;12.33;9.60;;;14.80;88.50;;;;;;5056744;28;20178;-88
2021/08/12 00:18:12;;;;;;;12.45;9.15;;;14.80;88.50;;;;;;5056682;28;20646;-88
2021/08/12 00:20:38;;;;;;;17.85;9.85;;;14.80;88.50;;;;;;5074386;28;20175;-88
2021/08/12 00:23:05;;;;;;;17.45;9.85;;;14.80;88.60;;;;;;5056134;28;20285;-88
2021/08/12 00:25:32;;;;;;;10.15;9.10;;;14.80;88.70;;;;;;5056106;28;20240;-88
2021/08/12 00:27:57;;;;;;;14.45;9.25;;;14.80;88.70;;;;;;5056215;28;20639;-88
2021/08/12 00:30:23;;;;;;;10.20;9.10;;;14.80;88.60;;;;;;5056716;28;20266;-88
2021/08/12 00:32:49;;;;;;;10.07;8.98;;;14.80;88.30;;;;;;5056088;28;20215;-88
2021/08/12 00:35:14;;;;;;;9.50;8.15;;;14.80;88.30;;;;;;5056188;28;20651;-88
2021/08/12 00:37:41;;;;;;;13.05;8.57;;;14.80;88.10;;;;;;5074222;28;20635;-88
2021/08/12 00:40:07;;;;;;;9.98;8.20;;;14.70;87.60;;;;;;5073856;28;20171;-88
2021/08/12 00:42:33;;;;;;;11.23;8.70;;;14.70;87.60;;;;;;5055925;28;20638;-88
2021/08/12 00:44:59;;;;;;;15.45;8.70;;;14.70;87.20;;;;;;5055845;28;20738;-86
2021/08/12 00:47:25;;;;;;;18.25;8.68;;;14.70;87.20;;;;;;5055697;28;20245;-86
2021/08/12 00:49:50;;;;;;;16.17;9.52;;;14.70;87.40;;;;;;5073460;28;20168;-86
2021/08/12 00:52:17;;;;;;;11.23;9.32;;;14.70;87.60;;;;;;5073300;28;20214;-87
2021/08/12 00:54:43;;;;;;;15.65;10.38;;;14.70;87.60;;;;;;5055549;28;20551;-86
2021/08/12 00:57:10;;;;;;;14.07;9.18;;;14.70;87.80;;;;;;5055502;28;20175;-86
2021/08/12 00:59:37;;;;;;;18.30;9.30;;;14.70;87.70;;;;;;5073407;28;20175;-86
2021/08/12 01:02:07;;;;;;;15.55;9.20;;;14.60;87.70;;;;;;5055634;28;20179;-87
2021/08/12 01:04:33;;;;;;;15.18;9.13;;;14.60;87.40;;;;;;5055551;28;20296;-87
2021/08/12 01:07:13;;;;;;;12.18;8.35;;;14.60;87.40;;;;;;5055428;28;20191;-87
2021/08/12 01:09:41;;;;;;;9.90;8.90;;;14.50;87.20;;;;;;5055592;28;20647;-87
2021/08/12 01:12:33;;;;;;;12.00;8.50;;;14.50;87.00;;;;;;5055211;28;20230;-87
2021/08/12 01:15:04;;;;;;;14.82;8.18;;;14.50;87.10;;;;;;5054589;28;20194;-87
2021/08/12 01:17:39;;;;;;;9.48;8.25;;;14.50;87.00;;;;;;5073129;28;20163;-87
2021/08/12 01:20:47;;;;;;;17.13;8.75;;;14.40;86.70;;;;;;5055846;28;20170;-87
2021/08/12 01:23:14;;;;;;;14.43;9.45;;;14.40;86.90;;;;;;5023979;28;20585;-87
2021/08/12 01:25:44;;;;;;;13.23;9.18;;;14.40;86.80;;;;;;5061860;28;20182;-87
2021/08/12 01:28:18;;;;;;;9.18;7.95;;;14.40;86.90;;;;;;5061835;28;20257;-87
2021/08/12 01:31:16;;;;;;;11.48;8.55;;;14.40;86.70;;;;;;5061818;28;20221;-87
2021/08/12 01:34:09;;;;;;;11.95;8.43;;;14.30;86.60;;;;;;5009235;28;20262;-86
2021/08/12 01:36:40;;;;;;;10.48;8.15;;;14.30;86.30;;;;;;5079745;28;20171;-87
2021/08/12 01:39:08;;;;;;;9.05;7.85;;;14.40;85.90;;;;;;5061738;28;20228;-87
2021/08/12 01:41:36;;;;;;;11.27;7.93;;;14.30;85.50;;;;;;5061900;28;20194;-87
2021/08/12 01:44:02;;;;;;;11.77;7.70;;;14.30;85.40;;;;;;5061617;28;20720;-87
2021/08/12 01:46:28;;;;;;;14.57;8.88;;;14.30;85.60;;;;;;5061716;28;20180;-87
2021/08/12 01:48:56;;;;;;;11.80;8.53;;;14.20;86.10;;;;;;5061668;28;20183;-87
2021/08/12 01:51:24;;;;;;;13.07;8.60;;;14.20;86.30;;;;;;5061755;28;20183;-87
2021/08/12 01:53:52;;;;;;;18.33;10.97;;;14.20;86.30;;;;;;5079452;28;20613;-87
2021/08/12 01:56:19;;;;;;;17.37;10.67;;;14.20;86.60;;;;;;5061654;28;20171;-87
2021/08/12 01:58:46;;;;;;;18.70;11.37;;;14.20;87.10;;;;;;5079617;28;20632;-87
2021/08/12 02:01:12;;;;;;;14.57;9.93;;;14.20;87.60;;;;;;5061638;28;20179;-86
2021/08/12 02:03:40;;;;;;;13.07;8.77;;;14.20;88.00;;;;;;5061549;28;20296;-87
2021/08/12 02:06:07;;;;;;;10.43;9.37;;;14.20;87.90;;;;;;5061667;28;20214;-87
2021/08/12 02:08:33;;;;;;;10.00;8.93;;;14.10;87.60;;;;;;5079808;28;20175;-87
2021/08/12 02:10:59;;;;;;;14.60;8.43;;;14.10;87.90;;;;;;5061543;28;20178;-87
2021/08/12 02:13:25;;;;;;;11.73;9.57;;;14.10;88.00;;;;;;5061663;28;20233;-87
2021/08/12 02:15:51;;;;;;;11.30;8.90;;;14.00;87.90;;;;;;5079464;28;20167;-87
2021/08/12 02:18:17;;;;;;;12.77;8.37;;;14.00;88.20;;;;;;5061429;28;20175;-87
2021/08/12 02:20:50;;;;;;;9.77;8.77;;;14.00;88.50;;;;;;5061672;28;20183;-87
2021/08/12 02:23:27;;;;;;;16.43;10.00;;;14.00;88.50;;;;;;5079693;28;20194;-87
2021/08/12 02:26:02;;;;;;;15.97;10.93;;;14.00;88.50;;;;;;5061699;28;20541;-87
2021/08/12 02:28:30;;;;;;;13.07;10.37;;;14.10;88.80;;;;;;5079428;28;20178;-86
2021/08/12 02:30:57;;;;;;;23.17;10.80;;;14.00;88.80;;;;;;5061513;28;20233;-87
2021/08/12 02:33:30;;;;;;;16.33;10.37;;;14.00;88.90;;;;;;5058585;28;20215;-87
2021/08/12 02:35:57;;;;;;;10.67;8.77;;;14.00;88.90;;;;;;5058361;28;20669;-86
2021/08/12 02:38:25;;;;;;;9.67;7.97;;;13.90;88.50;;;;;;5076110;28;20221;-87
2021/08/12 02:40:52;;;;;;;10.53;8.53;;;13.90;88.50;;;;;;5076067;28;20175;-86
2021/08/12 02:43:20;;;;;;;9.07;8.17;;;13.90;88.40;;;;;;5076034;28;20199;-87
2021/08/12 02:45:47;;;;;;;9.13;8.07;;;13.90;88.20;;;;;;5058164;28;20175;-87
2021/08/12 02:48:14;;;;;;;10.43;8.27;;;13.90;88.10;;;;;;5075902;28;20709;-86
2021/08/12 02:50:42;;;;;;;16.50;7.87;;;13.80;87.60;;;;;;5075978;28;20186;-87
2021/08/12 02:53:09;;;;;;;12.30;7.33;;;13.80;87.40;;;;;;5057884;28;20221;-87
2021/08/12 02:55:36;;;;;;;11.13;7.53;;;13.80;87.50;;;;;;5075820;28;20189;-87
2021/08/12 02:58:03;;;;;;;11.10;7.73;;;13.80;87.50;;;;;;5076132;28;20572;-87
2021/08/12 03:00:30;;;;;;;13.53;8.93;;;13.70;87.30;;;;;;5057880;28;20183;-87
2021/08/12 03:02:57;;;;;;;13.30;7.30;;;13.70;87.40;;;;;;5075550;28;20194;-87
2021/08/12 03:05:23;;;;;;;11.43;7.57;;;13.70;87.30;;;;;;5057482;28;20182;-87
2021/08/12 03:07:50;;;;;;;13.57;7.03;;;13.70;87.10;;;;;;5057933;28;20183;-87
2021/08/12 03:10:18;;;;;;;7.93;7.13;;;13.70;87.00;;;;;;5057628;28;20596;-87
2021/08/12 03:12:46;;;;;;;7.50;6.77;;;13.70;86.80;;;;;;5075302;28;20217;-87
2021/08/12 03:15:12;;;;;;;8.17;7.33;;;13.70;86.40;;;;;;5057422;28;20662;-86
2021/08/12 03:17:38;;;;;;;7.67;6.87;;;13.60;86.20;;;;;;5057360;28;20171;-87
2021/08/12 03:20:06;;;;;;;7.13;6.43;;;13.70;86.30;;;;;;5057360;28;20669;-87
2021/08/12 03:22:32;;;;;;;7.60;6.27;;;13.60;86.20;;;;;;5075337;28;20656;-87
2021/08/12 03:24:58;;;;;;;8.57;6.23;;;13.60;86.10;;;;;;5075083;28;20183;-87
2021/08/12 03:27:23;;;;;;;10.50;7.20;;;13.70;86.10;;;;;;5057244;28;20236;-87
2021/08/12 03:29:50;;;;;;;7.40;6.70;;;13.60;86.10;;;;;;5057102;28;20209;-87
2021/08/12 03:32:17;;;;;;;12.47;6.43;;;13.60;86.00;;;;;;5057141;28;20223;-87
2021/08/12 03:34:43;;;;;;;7.67;6.37;;;13.60;86.00;;;;;;5074837;28;20270;-87
2021/08/12 03:37:09;;;;;;;8.03;6.17;;;13.60;86.00;;;;;;5056956;28;20270;-87
2021/08/12 03:39:34;;;;;;;7.37;5.97;;;13.60;85.90;;;;;;5057024;28;20552;-87
2021/08/12 03:42:00;;;;;;;6.07;5.47;;;13.60;85.80;;;;;;5074799;28;20178;-86
2021/08/12 03:44:26;;;;;;;10.83;6.93;;;13.60;85.80;;;;;;5056168;28;20197;-87
2021/08/12 03:46:52;;;;;;;7.80;5.87;;;13.60;85.70;;;;;;5056897;28;20175;-86
2021/08/12 03:49:18;;;;;;;8.67;6.60;;;13.60;85.60;;;;;;5056793;28;20182;-87
2021/08/12 03:51:44;;;;;;;14.47;8.27;;;13.60;85.60;;;;;;5057588;28;20182;-87
2021/08/12 03:54:09;;;;;;;11.90;7.30;;;13.60;85.70;;;;;;5056487;28;20211;-87
2021/08/12 03:56:35;;;;;;;9.30;7.30;;;13.60;86.10;;;;;;5074461;28;20171;-87
2021/08/12 03:59:01;;;;;;;12.87;8.80;;;13.60;86.60;;;;;;5056528;28;20204;-86
2021/08/12 04:01:27;;;;;;;8.50;7.70;;;13.60;87.20;;;;;;5056611;28;20176;-86
2021/08/12 04:03:52;;;;;;;9.80;8.37;;;13.60;87.30;;;;;;5074194;28;20195;-86
2021/08/12 04:06:18;;;;;;;10.30;8.83;;;13.60;87.70;;;;;;5074299;28;20187;-87
2021/08/12 04:08:44;;;;;;;10.67;8.43;;;13.60;87.90;;;;;;5096007;23;20241;-88
2021/08/12 04:11:10;;;;;;;9.67;8.70;;;13.50;88.20;;;;;;5056207;28;20178;-88
2021/08/12 04:13:36;;;;;;;12.10;9.00;;;13.50;88.40;;;;;;5074582;28;20650;-87
2021/08/12 04:16:01;;;;;;;11.67;8.60;;;13.50;88.60;;;;;;5072786;28;20259;-87
2021/08/12 04:18:27;;;;;;;18.47;9.50;;;13.40;89.00;;;;;;5073928;28;20191;-87
2021/08/12 04:20:53;;;;;;;11.43;10.03;;;13.40;89.10;;;;;;5073962;28;20546;-87
2021/08/12 04:23:18;;;;;;;11.23;9.67;;;13.40;89.30;;;;;;5073857;28;20174;-87
2021/08/12 04:25:45;;;;;;;12.83;9.87;;;13.50;89.50;;;;;;5073875;28;20175;-87
2021/08/12 04:28:11;;;;;;;10.83;9.67;;;13.50;89.50;;;;;;5073721;28;20197;-87
2021/08/12 04:30:37;;;;;;;13.57;10.43;;;13.60;89.50;;;;;;5073681;28;20171;-88
2021/08/12 04:33:03;;;;;;;11.67;10.17;;;13.70;89.70;;;;;;5073544;28;20195;-87
2021/08/12 04:35:28;;;;;;;15.27;10.33;;;13.80;89.80;;;;;;5055670;28;20175;-87
2021/08/12 04:37:54;;;;;;;12.07;10.87;;;13.90;89.90;;;;;;5055742;28;20203;-87
2021/08/12 04:40:21;;;;;;;12.53;10.50;;;13.90;90.10;;;;;;5055691;28;20183;-88
2021/08/12 04:42:48;;;;;;;13.70;9.73;;;14.00;90.10;;;;;;5055643;28;20183;-87
2021/08/12 04:45:15;;;;;;;10.90;9.07;;;14.10;90.00;;;;;;5055580;28;20179;-88
2021/08/12 04:47:41;;;;;;;11.50;9.47;;;14.20;89.90;;;;;;5055442;28;20285;-88
2021/08/12 04:50:08;;;;;;;11.90;9.30;;;14.20;89.80;;;;;;5073778;28;20209;-88
2021/08/12 04:52:34;;;;;;;13.23;10.13;;;14.20;89.70;;;;;;5055308;28;20207;-88
2021/08/12 04:55:00;;;;;;;14.10;10.47;;;14.30;90.00;;;;;;5054955;28;20190;-88
2021/08/12 04:57:25;;;;;;;12.07;10.87;;;14.30;90.10;;;;;;5054912;28;20542;-88
2021/08/12 04:59:51;;;;;;;15.37;11.70;;;14.40;90.30;;;;;;5055446;28;20171;-88
2021/08/12 05:02:17;;;;;;;19.33;12.87;;;14.50;90.30;;;;;;5055359;28;20280;-88
2021/08/12 05:04:43;;;;;;;19.40;12.60;;;14.50;90.40;;;;;;5055372;28;20175;-88
2021/08/12 05:07:08;;;;;;;19.80;12.90;;;14.60;90.50;;;;;;5055258;28;20186;-88
2021/08/12 05:09:35;;;;;;;17.30;13.57;;;14.60;90.50;;;;;;5055216;28;20246;-88
2021/08/12 05:12:00;;;;;;;14.10;11.80;;;14.60;90.50;;;;;;5055271;28;20593;-87
2021/08/12 05:14:26;;;;;;;19.97;12.30;;;14.70;90.40;;;;;;5055148;28;20179;-87
2021/08/12 05:16:52;;;;;;;16.53;12.10;;;14.80;90.40;;;;;;5073161;28;20168;-88
2021/08/12 05:19:18;;;;;;;16.20;11.60;;;14.80;90.30;;;;;;5073070;28;20622;-88
2021/08/12 05:21:43;;;;;;;18.53;12.27;;;14.80;90.20;;;;;;5055178;28;20186;-88
2021/08/12 05:24:09;;;;;;;13.17;11.33;;;14.90;90.30;;;;;;5055137;28;20599;-87
2021/08/12 05:26:35;;;;;;;13.17;10.40;;;14.90;90.10;;;;;;5055132;28;20191;-87
2021/08/12 05:29:00;;;;;;;11.67;10.47;;;15.00;89.90;;;;;;5055096;28;20237;-87
2021/08/12 05:31:26;;;;;;;13.17;11.63;;;15.00;89.60;;;;;;5073016;28;20195;-87
2021/08/12 05:33:52;;;;;;;11.63;10.43;;;15.00;89.60;;;;;;5072919;28;20202;-88
2021/08/12 05:36:18;;;;;;;13.27;10.47;;;15.00;89.60;;;;;;5072910;28;20639;-88
2021/08/12 05:38:43;;;;;;;12.35;10.40;;;15.10;89.60;;;;;;5072856;28;20274;-88
2021/08/12 05:41:09;;;;;;;11.80;10.45;;;15.10;89.80;;;;;;5054909;28;20175;-88
2021/08/12 05:43:35;;;;;;;12.93;10.73;;;15.20;89.60;;;;;;5054961;28;20176;-88
2021/08/12 05:46:00;;;;;;;14.00;9.70;;;15.20;89.60;;;;;;5054918;28;20240;-87
2021/08/12 05:48:26;;;;;;;12.10;10.20;;;15.30;89.40;;;;;;5072758;28;20270;-88
2021/08/12 05:50:52;;;;;;;12.80;10.43;;;15.30;89.20;;;;;;5072877;28;20636;-88
2021/08/12 05:53:19;;;;;;;14.43;9.82;;;15.40;89.10;;;;;;5072750;28;20203;-88
2021/08/12 05:55:46;;;;;;;17.75;10.52;;;15.50;89.10;;;;;;5054842;28;20171;-88
2021/08/12 05:58:12;;;;;;;13.45;10.02;;;15.50;89.10;;;;;;5072951;28;20244;-88
2021/08/12 06:00:37;;;;;;;14.98;9.85;;;15.60;89.30;;;;;;5072720;28;20650;-88
2021/08/12 06:03:08;;;;;;;11.30;9.63;;;15.70;88.90;;;;;;5072770;28;20642;-88
2021/08/12 06:05:34;;;;;;;13.13;9.38;;;15.80;88.60;;;;;;5054734;28;20217;-88
2021/08/12 06:08:02;;;;;;;10.75;8.93;;;15.90;88.60;;;;;;5074888;28;20242;-87
2021/08/12 06:10:28;;;;;;;11.32;10.15;;;16.00;88.40;;;;;;5058519;28;20224;-88
2021/08/12 06:12:55;;;;;;;12.38;10.23;;;16.00;88.30;;;;;;5058419;28;20207;-88
2021/08/12 06:15:22;;;;;;;13.55;9.63;;;16.10;88.40;;;;;;5058450;28;20175;-88
2021/08/12 06:17:48;;;;;;;10.10;9.00;;;16.10;88.20;;;;;;5058218;28;20667;-88
2021/08/12 06:20:13;;;;;;;14.38;9.02;;;16.30;87.50;;;;;;5076193;28;20171;-88
2021/08/12 06:22:39;;;;;;;13.55;9.30;;;16.30;87.50;;;;;;5076480;28;20177;-88
2021/08/12 06:25:05;;;;;;;15.65;10.18;;;16.40;87.50;;;;;;5058230;28;20176;-88
2021/08/12 06:27:31;;;;;;;13.95;9.00;;;16.60;86.80;;;;;;5057993;28;20183;-88
2021/08/12 06:29:57;;;;;;;10.32;8.48;;;16.70;86.50;;;;;;5058421;28;20662;-88
2021/08/12 06:32:23;;;;;;;11.73;9.52;;;16.90;85.80;;;;;;5058135;28;20646;-88
2021/08/12 06:34:49;;;;;;;10.90;9.23;;;17.00;85.80;;;;;;5057997;28;20183;-88
2021/08/12 06:37:14;;;;;;;9.88;8.55;;;17.10;86.30;;;;;;5058043;28;20179;-88
2021/08/12 06:39:41;;;;;;;11.43;9.18;;;17.20;86.20;;;;;;5057894;28;20225;-88
2021/08/12 06:42:07;;;;;;;10.43;8.48;;;17.30;85.30;;;;;;5076090;28;20206;-87
2021/08/12 06:44:33;;;;;;;11.63;8.63;;;17.40;85.40;;;;;;5057749;28;20258;-88
2021/08/12 06:46:58;;;;;;;9.70;7.10;;;17.50;84.80;;;;;;5057869;28;20279;-88
2021/08/12 06:49:24;;;;;;;9.15;7.28;;;17.70;83.70;;;;;;5057748;28;20195;-88
2021/08/12 06:51:49;;;;;;;10.73;7.63;;;17.90;82.30;;;;;;5057767;28;20172;-88
2021/08/12 06:54:15;;;;;;;14.93;8.38;;;18.00;82.00;;;;;;5057676;28;20214;-88
2021/08/12 06:56:41;;;;;;;11.38;8.45;;;18.00;82.30;;;;;;5075633;28;20171;-86
2021/08/12 06:59:07;;;;;;;9.68;7.55;;;17.90;82.90;;;;;;5057679;28;20679;-86
2021/08/12 07:01:33;;;;;;;14.40;7.70;;;18.10;82.10;;;;;;5057545;28;20175;-85
2021/08/12 07:03:59;;;;;;;13.90;7.05;;;18.20;81.40;;;;;;5057459;28;20179;-86
2021/08/12 07:06:25;;;;;;;12.85;6.68;;;18.30;80.70;;;;;;5075405;28;20174;-86
2021/08/12 07:08:54;;;;;;;11.73;7.13;;;18.50;80.70;;;;;;5057285;28;20332;-86
2021/08/12 07:11:21;;;;;;;15.80;7.00;;;18.50;79.70;;;;;;5058044;28;20176;-87
2021/08/12 07:13:48;;;;;;;11.25;7.28;;;18.60;79.20;;;;;;5057240;28;20248;-88
2021/08/12 07:16:16;;;;;;;10.18;7.60;;;18.60;79.00;;;;;;5075415;28;20171;-88
2021/08/12 07:18:43;;;;;;;10.40;7.20;;;18.80;78.40;;;;;;5056370;28;20198;-86
2021/08/12 07:21:19;;;;;;;9.57;7.40;;;19.00;78.00;;;;;;5075141;28;20293;-86
2021/08/12 07:23:48;;;;;;;9.88;7.05;;;19.00;78.00;;;;;;5057797;28;20159;-86
2021/08/12 07:26:17;;;;;;;13.98;7.80;;;18.90;77.10;;;;;;5075342;28;20175;-86
2021/08/12 07:28:44;;;;;;;15.80;7.97;;;18.80;77.10;;;;;;5057025;28;20199;-86
2021/08/12 07:31:13;;;;;;;11.77;7.18;;;18.80;78.30;;;;;;5074939;28;20550;-86
2021/08/12 07:33:39;;;;;;;12.90;7.78;;;18.70;78.20;;;;;;5074876;28;20282;-88
2021/08/12 07:36:06;;;;;;;9.02;7.30;;;18.80;78.10;;;;;;5074914;28;20167;-88
2021/08/12 07:38:33;;;;;;;11.07;8.05;;;18.90;78.40;;;;;;5074665;28;20198;-88
2021/08/12 07:40:59;;;;;;;9.38;7.25;;;19.00;79.40;;;;;;5074803;28;20547;-88
2021/08/12 07:43:26;;;;;;;15.07;7.88;;;19.20;78.40;;;;;;5074707;28;20175;-88
2021/08/12 07:45:52;;;;;;;13.38;7.95;;;19.20;78.40;;;;;;5056772;28;20187;-88
2021/08/12 07:48:17;;;;;;;11.90;7.60;;;19.50;77.60;;;;;;5056688;28;20638;-88
2021/08/12 07:50:43;;;;;;;11.30;7.00;;;19.50;76.70;;;;;;5056725;28;20252;-88
2021/08/12 07:53:10;;;;;;;10.57;7.43;;;19.30;76.50;;;;;;5056593;28;20203;-88
2021/08/12 07:55:36;;;;;;;10.65;6.90;;;19.30;77.00;;;;;;5074531;28;20662;-88
2021/08/12 07:58:03;;;;;;;10.63;7.80;;;19.30;76.80;;;;;;5056559;28;20648;-88
2021/08/12 08:00:29;;;;;;;13.35;7.90;;;19.30;77.20;;;;;;5074384;28;20170;-88
2021/08/12 08:02:55;;;;;;;11.35;7.32;;;19.50;77.50;;;;;;5056456;28;20187;-88
2021/08/12 08:05:23;;;;;;;11.95;7.80;;;19.60;76.80;;;;;;5056389;28;20179;-88
2021/08/12 08:07:50;;;;;;;9.65;6.88;;;19.70;75.80;;;;;;5056085;28;20207;-88
2021/08/12 08:10:18;;;;;;;16.17;7.70;;;19.50;74.50;;;;;;5056363;28;20178;-88
2021/08/12 08:12:44;;;;;;;12.38;7.63;;;19.50;75.10;;;;;;5074080;28;20659;-88
2021/08/12 08:15:12;;;;;;;9.15;6.80;;;19.70;75.90;;;;;;5056157;28;20274;-88
2021/08/12 08:17:37;;;;;;;10.95;7.25;;;19.90;77.10;;;;;;5056370;28;20572;-89
2021/08/12 08:20:05;;;;;;;9.35;6.57;;;20.00;75.50;;;;;;5056373;28;20259;-88
2021/08/12 08:22:31;;;;;;;9.68;6.68;;;20.20;75.20;;;;;;5074099;28;20222;-89
2021/08/12 08:24:57;;;;;;;9.10;6.68;;;20.30;73.20;;;;;;5056026;28;20175;-88
2021/08/12 08:27:23;;;;;;;13.48;6.97;;;20.50;72.00;;;;;;5055834;28;20236;-88
2021/08/12 08:29:49;;;;;;;11.68;6.65;;;20.50;72.70;;;;;;5055779;28;20699;-88
2021/08/12 08:32:16;;;;;;;11.55;6.95;;;20.50;72.00;;;;;;5055737;28;20175;-88
2021/08/12 08:34:42;;;;;;;12.75;6.93;;;20.60;72.30;;;;;;5074141;28;20738;-89
2021/08/12 08:37:08;;;;;;;7.38;6.40;;;20.70;73.20;;;;;;5073665;28;20167;-89
2021/08/12 08:39:33;;;;;;;10.25;7.22;;;20.80;72.80;;;;;;5073650;28;20651;-89
2021/08/12 08:42:00;;;;;;;10.32;6.60;;;20.80;72.30;;;;;;5055741;28;20201;-89
2021/08/12 08:44:28;;;;;;;8.82;6.88;;;20.90;72.60;;;;;;5056532;28;20171;-89
2021/08/12 08:46:55;;;;;;;12.00;6.60;;;21.10;73.80;;;;;;5073611;28;20168;-89
2021/08/12 08:49:23;;;;;;;11.00;7.03;;;21.30;71.80;;;;;;5055962;28;20283;-89
2021/08/12 08:51:51;;;;;;;11.18;6.97;;;21.20;69.50;;;;;;5073486;28;20163;-89
2021/08/12 08:54:18;;;;;;;11.30;6.55;;;21.20;71.00;;;;;;5073423;28;20199;-87
2021/08/12 08:56:45;;;;;;;10.23;6.75;;;21.30;71.60;;;;;;5055561;28;20262;-87
2021/08/12 08:59:11;;;;;;;8.40;6.63;;;21.50;70.80;;;;;;5073411;28;20187;-87
2021/08/12 09:01:38;;;;;;;11.65;6.35;;;21.50;70.50;;;;;;5055526;28;20167;-88
2021/08/12 09:04:04;;;;;;;10.88;6.72;;;21.70;69.90;;;;;;5055579;28;20642;-88
2021/08/12 09:06:30;;;;;;;9.00;6.63;;;21.90;71.00;;;;;;5073365;28;20183;-87
2021/08/12 09:08:56;;;;;;;8.27;6.03;;;21.80;69.20;;;;;;5073532;28;20551;-87
2021/08/12 09:11:23;;;;;;;8.85;5.95;;;21.90;68.00;;;;;;5055318;28;20639;-87
2021/08/12 09:13:48;;;;;;;10.98;6.90;;;21.90;68.50;;;;;;5055268;28;20232;-87
2021/08/12 09:16:35;;;;;;;13.20;5.80;;;22.10;67.90;;;;;;5073590;28;20595;-87
2021/08/12 09:19:21;;;;;;;9.02;6.15;;;22.10;69.40;;;;;;5055553;28;20591;-87
2021/08/12 09:21:48;;;;;;;9.57;6.03;;;22.20;67.80;;;;;;5055313;28;20252;-87
2021/08/12 09:24:13;;;;;;;7.22;5.85;;;22.10;68.20;;;;;;5073200;28;20561;-86
2021/08/12 09:26:41;;;;;;;8.52;6.07;;;22.10;66.70;;;;;;5055396;28;20168;-87
2021/08/12 09:29:07;;;;;;;7.78;6.20;;;22.20;68.00;;;;;;5055177;28;20205;-87
2021/08/12 09:31:34;;;;;;;8.55;6.15;;;22.00;66.30;;;;;;5055253;28;20712;-87
2021/08/12 09:34:11;;;;;;;11.40;8.40;;;22.10;66.10;;;;;;5055904;28;20206;-87
2021/08/12 09:36:39;;;;;;;10.43;6.60;;;22.10;67.00;;;;;;5055766;28;20167;-88
2021/08/12 09:39:06;;;;;;;7.43;6.40;;;22.30;68.60;;;;;;5055087;28;20195;-87
2021/08/12 09:41:51;;;;;;;8.75;6.75;;;22.40;68.10;;;;;;5073141;28;20603;-88
2021/08/12 09:44:52;;;;;;;9.90;7.47;;;22.70;68.00;;;;;;5059298;28;20557;-88
2021/08/12 09:47:18;;;;;;;8.77;7.20;;;22.70;67.00;;;;;;5049123;28;20685;-88
2021/08/12 09:49:47;;;;;;;11.88;6.07;;;22.90;65.70;;;;;;5059300;28;20171;-87
2021/08/12 09:52:20;;;;;;;11.02;6.30;;;23.00;65.90;;;;;;5060076;28;20182;-87
2021/08/12 09:54:46;;;;;;;10.05;6.63;;;23.10;65.40;;;;;;5058887;28;20171;-87
2021/08/12 09:57:19;;;;;;;7.38;6.20;;;23.30;65.60;;;;;;5076758;28;20179;-87
2021/08/12 09:59:48;;;;;;;9.25;6.30;;;23.50;65.10;;;;;;5076848;28;20623;-88
2021/08/12 10:02:14;;;;;;;8.52;6.35;;;23.70;64.50;;;;;;5077043;28;20662;-88
2021/08/12 10:04:40;;;;;;;8.90;6.13;;;23.70;63.80;;;;;;5058674;28;20258;-87
2021/08/12 10:07:05;;;;;;;7.80;6.13;;;23.70;63.70;;;;;;5058848;28;20185;-87
2021/08/12 10:09:40;;;;;;;8.05;6.55;;;23.80;62.20;;;;;;5100412;22;20253;-86
2021/08/12 10:12:07;;;;;;;6.85;6.18;;;23.70;64.40;;;;;;5059224;28;20163;-86
2021/08/12 10:14:33;;;;;;;8.30;5.55;;;23.70;62.60;;;;;;5058934;28;20182;-86
2021/08/12 10:16:59;;;;;;;7.40;6.13;;;23.70;63.30;;;;;;5058854;28;20650;-87
2021/08/12 10:19:25;;;;;;;7.32;6.00;;;23.90;62.10;;;;;;5076298;28;20191;-87
2021/08/12 10:21:51;;;;;;;6.65;5.70;;;23.90;62.60;;;;;;5076745;28;20209;-87
2021/08/12 10:24:19;;;;;;;6.93;5.88;;;24.20;64.50;;;;;;5058277;28;20172;-87
2021/08/12 10:26:49;;;;;;;6.65;5.95;;;24.20;61.20;;;;;;5076769;28;20168;-86
2021/08/12 10:29:17;;;;;;;6.78;5.85;;;24.20;62.30;;;;;;5076212;28;20201;-87
2021/08/12 10:31:45;;;;;;;8.75;6.28;;;24.40;61.30;;;;;;5076082;28;20182;-87
2021/08/12 10:34:12;;;;;;;12.95;6.07;;;24.40;61.40;;;;;;5058880;28;20207;-87
2021/08/12 10:36:39;;;;;;;11.45;5.97;;;24.40;60.70;;;;;;5075998;28;20183;-87
2021/08/12 10:39:06;;;;;;;7.15;6.10;;;24.60;61.30;;;;;;5057932;28;20199;-87
2021/08/12 10:41:35;;;;;;;7.45;6.38;;;24.70;60.40;;;;;;5075876;28;20533;-87
2021/08/12 10:44:01;;;;;;;8.43;6.13;;;24.50;59.00;;;;;;5057946;28;20225;-87
2021/08/12 10:46:38;;;;;;;6.65;6.05;;;24.50;59.80;;;;;;5075934;28;20175;-87
2021/08/12 10:49:30;;;;;;;6.95;6.00;;;24.90;61.50;;;;;;5075947;28;20187;-87
2021/08/12 10:52:07;;;;;;;8.70;7.13;;;25.10;61.10;;;;;;5057770;28;20171;-87
2021/08/12 10:54:38;;;;;;;8.93;6.03;;;24.90;59.50;;;;;;5074642;28;20156;-87
2021/08/12 10:57:12;;;;;;;8.52;6.13;;;25.10;58.40;;;;;;5075761;28;20164;-87
2021/08/12 10:59:41;;;;;;;7.63;6.28;;;25.20;58.80;;;;;;5057647;28;20260;-87
2021/08/12 11:02:41;;;;;;;8.23;6.53;;;25.20;58.00;;;;;;5057710;28;20171;-87
2021/08/12 11:05:07;;;;;;;8.90;6.38;;;25.30;60.10;;;;;;5075574;28;20152;-87
2021/08/12 11:07:36;;;;;;;7.25;6.13;;;25.30;59.50;;;;;;5075452;28;20238;-87
2021/08/12 11:10:06;;;;;;;6.90;6.22;;;25.20;58.40;;;;;;5075352;28;20618;-87
2021/08/12 11:12:56;;;;;;;8.25;6.18;;;25.10;59.90;;;;;;5075235;28;20218;-87
2021/08/12 11:15:37;;;;;;;7.22;5.63;;;25.20;61.80;;;;;;5058452;28;20172;-87
2021/08/12 11:18:18;;;;;;;8.63;6.03;;;25.70;59.60;;;;;;5075374;28;20693;-87
2021/08/12 11:20:46;;;;;;;7.93;6.97;;;25.30;59.10;;;;;;5075251;28;20154;-87
2021/08/12 11:23:35;;;;;;;7.82;7.03;;;25.40;58.30;;;;;;5075250;28;20183;-87
2021/08/12 11:26:04;;;;;;;9.85;6.63;;;25.50;59.40;;;;;;5049440;28;20191;-87
2021/08/12 11:28:39;;;;;;;10.80;6.90;;;25.80;57.60;;;;;;5057049;28;20199;-87
2021/08/12 11:31:07;;;;;;;10.80;6.40;;;25.50;55.70;;;;;;5075351;28;20578;-87
2021/08/12 11:33:47;;;;;;;7.22;6.32;;;25.40;56.40;;;;;;5057024;28;20203;-87
2021/08/12 11:36:35;;;;;;;6.40;5.63;;;25.30;57.40;;;;;;5074994;28;20503;-86
2021/08/12 11:39:07;;;;;;;8.50;6.35;;;25.70;57.80;;;;;;5057347;28;20206;-87
2021/08/12 11:41:36;;;;;;;8.43;6.70;;;25.80;56.10;;;;;;5057235;28;20183;-86
2021/08/12 11:44:08;;;;;;;6.65;5.95;;;25.70;54.40;;;;;;5074744;28;20171;-87
2021/08/12 11:46:37;;;;;;;13.00;6.90;;;25.90;57.80;;;;;;5056861;28;20168;-87
2021/08/12 11:49:04;;;;;;;7.93;6.28;;;26.20;57.50;;;;;;5057004;28;20689;-87
2021/08/12 11:51:31;;;;;;;8.27;6.90;;;26.20;55.60;;;;;;5057619;28;20224;-87
2021/08/12 11:53:58;;;;;;;9.30;6.55;;;26.20;57.10;;;;;;5056533;28;20711;-87
2021/08/12 11:56:27;;;;;;;7.20;6.13;;;25.80;56.40;;;;;;5056655;28;20581;-87
2021/08/12 11:58:55;;;;;;;7.65;6.63;;;26.50;57.60;;;;;;5074485;28;20183;-87
2021/08/12 12:01:23;;;;;;;6.80;5.32;;;26.20;55.60;;;;;;5056503;28;20270;-87
2021/08/12 12:03:58;;;;;;;11.65;7.35;;;26.60;56.40;;;;;;5056513;28;20179;-87
2021/08/12 12:06:38;;;;;;;8.70;6.50;;;26.20;54.90;;;;;;5073948;28;20242;-87
2021/08/12 12:09:27;;;;;;;11.10;6.28;;;26.50;57.10;;;;;;5056165;28;20218;-87
2021/08/12 12:12:02;;;;;;;7.57;5.95;;;26.70;56.50;;;;;;5044621;28;20663;-87
2021/08/12 12:14:31;;;;;;;9.57;6.57;;;27.20;56.00;;;;;;5056201;28;20600;-87
2021/08/12 12:17:15;;;;;;;7.30;6.15;;;26.80;53.00;;;;;;5056236;28;20204;-87
2021/08/12 12:19:59;;;;;;;7.15;6.45;;;26.60;57.00;;;;;;5073931;28;20693;-87
2021/08/12 12:22:27;;;;;;;8.93;6.38;;;26.70;55.80;;;;;;5074337;28;20255;-87
2021/08/12 12:24:53;;;;;;;6.25;5.65;;;26.80;56.10;;;;;;5073917;28;20168;-87
2021/08/12 12:27:20;;;;;;;7.60;6.20;;;26.60;54.80;;;;;;5056059;28;20252;-87
2021/08/12 12:29:48;;;;;;;8.35;6.80;;;26.70;54.40;;;;;;5073768;28;20187;-87
2021/08/12 12:32:14;;;;;;;10.73;6.93;;;26.60;55.30;;;;;;5055937;28;20709;-87
2021/08/12 12:34:57;;;;;;;7.50;6.80;;;26.40;54.60;;;;;;5055906;28;20227;-87
2021/08/12 12:37:23;;;;;;;7.07;6.38;;;26.60;56.20;;;;;;5073739;28;20147;-87
2021/08/12 12:39:50;;;;;;;8.18;5.57;;;26.80;54.50;;;;;;5055709;28;20199;-87
2021/08/12 12:42:17;;;;;;;5.95;5.43;;;27.00;54.70;;;;;;5055815;28;20263;-87
2021/08/12 12:45:00;;;;;;;9.63;5.90;;;27.30;53.30;;;;;;5073621;28;20159;-87